sensor_id;sensor_type;location;lat;lon;timestamp;pressure;altitude;pressure_sealevel;temperature;humidity
64354;BME280;50681;53.334;-6.536;2023-02-15T00:00:16;101309.47;;;7.95;100.00
64354;BME280;50681;53.334;-6.536;2023-02-15T00:02:41;101322.03;;;8.12;100.00
64354;BME280;50681;53.334;-6.536;2023-02-15T00:05:08;101315.03;;;8.11;100.00
64354;BME280;50681;53.334;-6.536;2023-02-15T00:07:34;101274.00;;;7.98;100.00
64354;BME280;50681;53.334;-6.536;2023-02-15T00:10:00;101276.75;;;8.03;100.00
64354;BME280;50681;53.334;-6.536;2023-02-15T00:12:25;101271.88;;;8.00;100.00
64354;BME280;50681;53.334;-6.536;2023-02-15T00:14:50;101272.03;;;8.16;100.00
64354;BME280;50681;53.334;-6.536;2023-02-15T00:17:16;101246.84;;;8.00;100.00
64354;BME280;50681;53.334;-6.536;2023-02-15T00:19:41;101247.13;;;7.98;100.00
64354;BME280;50681;53.334;-6.536;2023-02-15T00:22:07;101252.50;;;7.98;100.00
64354;BME280;50681;53.334;-6.536;2023-02-15T00:24:32;101266.38;;;8.17;100.00
64354;BME280;50681;53.334;-6.536;2023-02-15T00:26:58;101229.06;;;7.93;100.00
64354;BME280;50681;53.334;-6.536;2023-02-15T00:29:23;101245.31;;;8.09;100.00
64354;BME280;50681;53.334;-6.536;2023-02-15T00:31:50;101251.56;;;8.15;100.00
64354;BME280;50681;53.334;-6.536;2023-02-15T00:34:19;101229.38;;;7.97;100.00
64354;BME280;50681;53.334;-6.536;2023-02-15T00:36:46;101251.81;;;8.13;100.00
64354;BME280;50681;53.334;-6.536;2023-02-15T00:39:12;101219.94;;;7.94;100.00
64354;BME280;50681;53.334;-6.536;2023-02-15T00:41:37;101254.50;;;8.13;100.00
64354;BME280;50681;53.334;-6.536;2023-02-15T00:44:03;101229.91;;;7.99;100.00
64354;BME280;50681;53.334;-6.536;2023-02-15T00:46:29;101241.84;;;8.08;100.00
64354;BME280;50681;53.334;-6.536;2023-02-15T00:48:55;101238.91;;;8.15;100.00
64354;BME280;50681;53.334;-6.536;2023-02-15T00:51:20;101214.06;;;8.03;100.00
64354;BME280;50681;53.334;-6.536;2023-02-15T00:53:47;101224.69;;;8.15;100.00
64354;BME280;50681;53.334;-6.536;2023-02-15T00:56:12;101203.31;;;8.03;100.00
64354;BME280;50681;53.334;-6.536;2023-02-15T00:58:38;101205.34;;;8.18;100.00
64354;BME280;50681;53.334;-6.536;2023-02-15T01:01:08;101200.72;;;8.13;100.00
64354;BME280;50681;53.334;-6.536;2023-02-15T01:03:35;101203.41;;;8.13;100.00
64354;BME280;50681;53.334;-6.536;2023-02-15T01:06:01;101205.28;;;8.13;100.00
64354;BME280;50681;53.334;-6.536;2023-02-15T01:08:27;101198.56;;;8.15;100.00
64354;BME280;50681;53.334;-6.536;2023-02-15T01:10:53;101174.25;;;8.00;100.00
64354;BME280;50681;53.334;-6.536;2023-02-15T01:13:18;101168.06;;;7.99;100.00
64354;BME280;50681;53.334;-6.536;2023-02-15T01:15:44;101186.41;;;8.07;100.00
64354;BME280;50681;53.334;-6.536;2023-02-15T01:18:10;101175.69;;;8.13;100.00
64354;BME280;50681;53.334;-6.536;2023-02-15T01:20:37;101182.19;;;8.17;100.00
64354;BME280;50681;53.334;-6.536;2023-02-15T01:23:04;101161.09;;;8.03;100.00
64354;BME280;50681;53.334;-6.536;2023-02-15T01:25:30;101174.38;;;8.15;100.00
64354;BME280;50681;53.334;-6.536;2023-02-15T01:27:56;101150.88;;;8.00;100.00
64354;BME280;50681;53.334;-6.536;2023-02-15T01:30:21;101151.97;;;8.04;100.00
64354;BME280;50681;53.334;-6.536;2023-02-15T01:32:47;101173.00;;;8.13;100.00
64354;BME280;50681;53.334;-6.536;2023-02-15T01:35:12;101152.56;;;8.12;100.00
64354;BME280;50681;53.334;-6.536;2023-02-15T01:37:38;101155.22;;;8.06;100.00
64354;BME280;50681;53.334;-6.536;2023-02-15T01:40:06;101161.44;;;8.12;100.00
64354;BME280;50681;53.334;-6.536;2023-02-15T01:42:32;101131.44;;;7.93;100.00
64354;BME280;50681;53.334;-6.536;2023-02-15T01:45:20;101106.44;;;7.92;100.00
64354;BME280;50681;53.334;-6.536;2023-02-15T01:47:50;101111.06;;;8.02;100.00
64354;BME280;50681;53.334;-6.536;2023-02-15T01:50:41;101117.81;;;8.05;100.00
64354;BME280;50681;53.334;-6.536;2023-02-15T01:53:17;101100.28;;;7.97;100.00
64354;BME280;50681;53.334;-6.536;2023-02-15T01:55:59;101087.91;;;7.96;100.00
64354;BME280;50681;53.334;-6.536;2023-02-15T01:58:27;101084.94;;;7.98;100.00
64354;BME280;50681;53.334;-6.536;2023-02-15T02:00:56;101068.25;;;7.90;100.00
64354;BME280;50681;53.334;-6.536;2023-02-15T02:04:05;101089.28;;;8.04;100.00
64354;BME280;50681;53.334;-6.536;2023-02-15T02:06:35;101094.66;;;8.04;100.00
64354;BME280;50681;53.334;-6.536;2023-02-15T02:09:01;101063.63;;;7.86;100.00
64354;BME280;50681;53.334;-6.536;2023-02-15T02:11:27;101081.19;;;7.99;100.00
64354;BME280;50681;53.334;-6.536;2023-02-15T02:13:53;101053.94;;;7.85;100.00
64354;BME280;50681;53.334;-6.536;2023-02-15T02:16:25;101084.97;;;8.03;100.00
64354;BME280;50681;53.334;-6.536;2023-02-15T02:40:23;101050.06;;;8.08;100.00
64354;BME280;50681;53.334;-6.536;2023-02-15T02:42:58;101027.72;;;8.02;100.00
64354;BME280;50681;53.334;-6.536;2023-02-15T02:45:34;101047.66;;;8.12;100.00
64354;BME280;50681;53.334;-6.536;2023-02-15T02:48:12;101041.19;;;8.07;100.00
64354;BME280;50681;53.334;-6.536;2023-02-15T02:50:40;101047.94;;;8.15;100.00
64354;BME280;50681;53.334;-6.536;2023-02-15T02:53:06;101024.53;;;8.11;100.00
64354;BME280;50681;53.334;-6.536;2023-02-15T02:58:11;100998.72;;;8.15;100.00
64354;BME280;50681;53.334;-6.536;2023-02-15T03:00:47;100992.47;;;8.04;100.00
64354;BME280;50681;53.334;-6.536;2023-02-15T03:03:20;100965.78;;;7.87;100.00
64354;BME280;50681;53.334;-6.536;2023-02-15T03:05:47;101004.31;;;8.08;100.00
64354;BME280;50681;53.334;-6.536;2023-02-15T03:08:18;100990.84;;;8.03;100.00
64354;BME280;50681;53.334;-6.536;2023-02-15T03:10:48;100989.50;;;8.00;100.00
64354;BME280;50681;53.334;-6.536;2023-02-15T03:13:17;100993.53;;;8.03;100.00
64354;BME280;50681;53.334;-6.536;2023-02-15T03:15:43;100974.94;;;7.91;100.00
64354;BME280;50681;53.334;-6.536;2023-02-15T03:18:34;100998.44;;;8.11;100.00
64354;BME280;50681;53.334;-6.536;2023-02-15T03:21:02;100968.25;;;7.99;100.00
64354;BME280;50681;53.334;-6.536;2023-02-15T03:23:30;100960.44;;;7.97;100.00
64354;BME280;50681;53.334;-6.536;2023-02-15T03:26:02;100949.16;;;7.95;100.00
64354;BME280;50681;53.334;-6.536;2023-02-15T03:28:47;100955.66;;;8.04;100.00
64354;BME280;50681;53.334;-6.536;2023-02-15T03:31:15;100969.91;;;8.10;100.00
64354;BME280;50681;53.334;-6.536;2023-02-15T03:33:49;100948.59;;;7.93;100.00
64354;BME280;50681;53.334;-6.536;2023-02-15T03:36:21;100941.09;;;7.95;100.00
64354;BME280;50681;53.334;-6.536;2023-02-15T03:41:44;100953.72;;;8.00;100.00
64354;BME280;50681;53.334;-6.536;2023-02-15T03:44:27;100969.66;;;8.12;100.00
64354;BME280;50681;53.334;-6.536;2023-02-15T03:47:07;100942.69;;;7.96;100.00
64354;BME280;50681;53.334;-6.536;2023-02-15T03:49:53;100973.69;;;8.14;100.00
64354;BME280;50681;53.334;-6.536;2023-02-15T03:52:21;100938.13;;;7.91;100.00
64354;BME280;50681;53.334;-6.536;2023-02-15T03:55:03;100956.69;;;7.98;100.00
64354;BME280;50681;53.334;-6.536;2023-02-15T03:57:29;100977.19;;;8.09;100.00
64354;BME280;50681;53.334;-6.536;2023-02-15T04:00:22;100976.38;;;8.14;100.00
64354;BME280;50681;53.334;-6.536;2023-02-15T04:05:33;100955.91;;;8.08;100.00
64354;BME280;50681;53.334;-6.536;2023-02-15T04:07:58;100932.47;;;7.93;100.00
64354;BME280;50681;53.334;-6.536;2023-02-15T04:10:24;100979.34;;;8.13;100.00
64354;BME280;50681;53.334;-6.536;2023-02-15T04:13:08;100947.56;;;8.04;100.00
64354;BME280;50681;53.334;-6.536;2023-02-15T04:15:33;100935.19;;;7.98;100.00
64354;BME280;50681;53.334;-6.536;2023-02-15T04:18:17;100949.22;;;8.11;100.00
64354;BME280;50681;53.334;-6.536;2023-02-15T04:20:44;100936.59;;;8.16;100.00
64354;BME280;50681;53.334;-6.536;2023-02-15T04:23:28;100934.19;;;8.15;100.00
64354;BME280;50681;53.334;-6.536;2023-02-15T04:26:12;100921.84;;;8.24;100.00
64354;BME280;50681;53.334;-6.536;2023-02-15T04:28:37;100907.00;;;8.21;100.00
64354;BME280;50681;53.334;-6.536;2023-02-15T04:31:02;100901.91;;;8.15;100.00
64354;BME280;50681;53.334;-6.536;2023-02-15T04:33:28;100902.72;;;8.20;100.00
64354;BME280;50681;53.334;-6.536;2023-02-15T04:35:53;100907.31;;;8.30;100.00
64354;BME280;50681;53.334;-6.536;2023-02-15T04:38:19;100895.16;;;8.17;100.00
64354;BME280;50681;53.334;-6.536;2023-02-15T04:40:49;100895.47;;;8.21;100.00
64354;BME280;50681;53.334;-6.536;2023-02-15T04:43:14;100902.19;;;8.29;100.00
64354;BME280;50681;53.334;-6.536;2023-02-15T04:45:40;100893.88;;;8.30;100.00
64354;BME280;50681;53.334;-6.536;2023-02-15T04:48:05;100935.63;;;8.48;100.00
64354;BME280;50681;53.334;-6.536;2023-02-15T04:50:30;100976.78;;;8.44;100.00
64354;BME280;50681;53.334;-6.536;2023-02-15T04:52:56;101008.84;;;7.97;100.00
64354;BME280;50681;53.334;-6.536;2023-02-15T04:55:21;101087.28;;;7.51;100.00
64354;BME280;50681;53.334;-6.536;2023-02-15T04:57:47;101097.66;;;7.70;100.00
64354;BME280;50681;53.334;-6.536;2023-02-15T05:00:12;101075.88;;;7.11;100.00
64354;BME280;50681;53.334;-6.536;2023-02-15T05:02:38;101102.72;;;7.33;100.00
64354;BME280;50681;53.334;-6.536;2023-02-15T05:05:03;101085.03;;;8.51;100.00
64354;BME280;50681;53.334;-6.536;2023-02-15T05:07:29;101076.13;;;9.97;100.00
64354;BME280;50681;53.334;-6.536;2023-02-15T05:09:54;101083.69;;;9.48;100.00
64354;BME280;50681;53.334;-6.536;2023-02-15T05:12:20;101067.75;;;9.26;100.00
64354;BME280;50681;53.334;-6.536;2023-02-15T05:14:45;101093.91;;;9.31;100.00
64354;BME280;50681;53.334;-6.536;2023-02-15T05:17:11;101096.34;;;8.53;100.00
64354;BME280;50681;53.334;-6.536;2023-02-15T05:19:36;101083.53;;;7.52;100.00
64354;BME280;50681;53.334;-6.536;2023-02-15T05:22:02;101093.31;;;7.36;100.00
64354;BME280;50681;53.334;-6.536;2023-02-15T05:24:27;101078.16;;;7.25;100.00
64354;BME280;50681;53.334;-6.536;2023-02-15T05:27:11;101068.13;;;7.42;100.00
64354;BME280;50681;53.334;-6.536;2023-02-15T05:29:55;101060.81;;;7.70;100.00
64354;BME280;50681;53.334;-6.536;2023-02-15T05:32:21;101088.09;;;7.84;100.00
64354;BME280;50681;53.334;-6.536;2023-02-15T05:34:46;101078.72;;;7.92;100.00
64354;BME280;50681;53.334;-6.536;2023-02-15T05:37:11;101059.56;;;7.78;100.00
64354;BME280;50681;53.334;-6.536;2023-02-15T05:39:37;101056.09;;;7.83;100.00
64354;BME280;50681;53.334;-6.536;2023-02-15T05:42:02;101101.06;;;8.35;100.00
64354;BME280;50681;53.334;-6.536;2023-02-15T05:44:28;101093.03;;;8.41;100.00
64354;BME280;50681;53.334;-6.536;2023-02-15T05:46:53;101085.41;;;8.27;100.00
64354;BME280;50681;53.334;-6.536;2023-02-15T05:49:19;101062.28;;;8.26;100.00
64354;BME280;50681;53.334;-6.536;2023-02-15T05:51:44;101081.78;;;8.06;100.00
64354;BME280;50681;53.334;-6.536;2023-02-15T05:54:09;101084.75;;;8.04;100.00
64354;BME280;50681;53.334;-6.536;2023-02-15T05:56:35;101080.56;;;8.24;100.00
64354;BME280;50681;53.334;-6.536;2023-02-15T05:59:00;101104.13;;;8.06;100.00
64354;BME280;50681;53.334;-6.536;2023-02-15T06:01:26;101108.06;;;7.93;100.00
64354;BME280;50681;53.334;-6.536;2023-02-15T06:03:52;101108.78;;;7.84;100.00
64354;BME280;50681;53.334;-6.536;2023-02-15T06:06:17;101067.31;;;8.17;100.00
64354;BME280;50681;53.334;-6.536;2023-02-15T06:08:43;101117.78;;;8.43;100.00
64354;BME280;50681;53.334;-6.536;2023-02-15T06:11:09;101100.41;;;8.18;100.00
64354;BME280;50681;53.334;-6.536;2023-02-15T06:13:34;101137.66;;;8.36;100.00
64354;BME280;50681;53.334;-6.536;2023-02-15T06:16:00;101097.16;;;8.11;100.00
64354;BME280;50681;53.334;-6.536;2023-02-15T06:18:26;101109.84;;;8.20;100.00
64354;BME280;50681;53.334;-6.536;2023-02-15T06:20:51;101145.72;;;7.99;100.00
64354;BME280;50681;53.334;-6.536;2023-02-15T06:23:17;101107.88;;;7.68;100.00
64354;BME280;50681;53.334;-6.536;2023-02-15T06:25:44;101149.44;;;7.87;100.00
64354;BME280;50681;53.334;-6.536;2023-02-15T06:28:10;101131.19;;;7.62;100.00
64354;BME280;50681;53.334;-6.536;2023-02-15T06:30:35;101141.47;;;7.70;100.00
64354;BME280;50681;53.334;-6.536;2023-02-15T06:33:01;101126.13;;;7.65;100.00
64354;BME280;50681;53.334;-6.536;2023-02-15T06:35:26;101152.88;;;7.83;100.00
64354;BME280;50681;53.334;-6.536;2023-02-15T06:37:51;101121.25;;;7.95;100.00
64354;BME280;50681;53.334;-6.536;2023-02-15T06:40:17;101141.22;;;8.47;100.00
64354;BME280;50681;53.334;-6.536;2023-02-15T06:42:43;101135.34;;;8.13;100.00
64354;BME280;50681;53.334;-6.536;2023-02-15T06:45:09;101143.81;;;7.94;100.00
64354;BME280;50681;53.334;-6.536;2023-02-15T06:47:35;101143.53;;;7.90;100.00
64354;BME280;50681;53.334;-6.536;2023-02-15T06:50:01;101136.03;;;7.92;100.00
64354;BME280;50681;53.334;-6.536;2023-02-15T06:52:26;101149.63;;;7.80;100.00
64354;BME280;50681;53.334;-6.536;2023-02-15T06:54:53;101160.69;;;7.84;100.00
64354;BME280;50681;53.334;-6.536;2023-02-15T06:57:18;101161.28;;;7.91;100.00
64354;BME280;50681;53.334;-6.536;2023-02-15T06:59:44;101158.34;;;7.93;100.00
64354;BME280;50681;53.334;-6.536;2023-02-15T07:02:11;101149.78;;;8.01;100.00
64354;BME280;50681;53.334;-6.536;2023-02-15T07:04:37;101144.84;;;7.88;100.00
64354;BME280;50681;53.334;-6.536;2023-02-15T07:07:03;101151.69;;;8.06;100.00
64354;BME280;50681;53.334;-6.536;2023-02-15T07:09:28;101144.94;;;7.98;100.00
64354;BME280;50681;53.334;-6.536;2023-02-15T07:11:54;101147.69;;;8.08;100.00
64354;BME280;50681;53.334;-6.536;2023-02-15T07:14:38;101142.88;;;8.11;100.00
64354;BME280;50681;53.334;-6.536;2023-02-15T07:17:03;101100.78;;;7.94;100.00
64354;BME280;50681;53.334;-6.536;2023-02-15T07:19:29;101116.16;;;7.99;100.00
64354;BME280;50681;53.334;-6.536;2023-02-15T07:21:54;101104.13;;;8.06;100.00
64354;BME280;50681;53.334;-6.536;2023-02-15T07:24:19;101108.47;;;8.13;100.00
64354;BME280;50681;53.334;-6.536;2023-02-15T07:26:45;101084.63;;;7.89;100.00
64354;BME280;50681;53.334;-6.536;2023-02-15T07:29:10;101101.34;;;7.96;100.00
64354;BME280;50681;53.334;-6.536;2023-02-15T07:31:36;101090.00;;;7.89;100.00
64354;BME280;50681;53.334;-6.536;2023-02-15T07:34:01;101102.94;;;7.92;100.00
64354;BME280;50681;53.334;-6.536;2023-02-15T07:36:26;101080.81;;;7.85;100.00
64354;BME280;50681;53.334;-6.536;2023-02-15T07:38:52;101094.81;;;7.87;100.00
64354;BME280;50681;53.334;-6.536;2023-02-15T07:41:17;101089.44;;;7.87;100.00
64354;BME280;50681;53.334;-6.536;2023-02-15T07:43:44;101102.41;;;7.95;100.00
64354;BME280;50681;53.334;-6.536;2023-02-15T07:46:14;101083.00;;;7.88;100.00
64354;BME280;50681;53.334;-6.536;2023-02-15T07:48:41;101092.97;;;7.87;100.00
64354;BME280;50681;53.334;-6.536;2023-02-15T07:51:09;101094.53;;;7.83;100.00
64354;BME280;50681;53.334;-6.536;2023-02-15T07:53:35;101056.94;;;7.56;100.00
64354;BME280;50681;53.334;-6.536;2023-02-15T07:56:06;101084.41;;;7.63;100.00
64354;BME280;50681;53.334;-6.536;2023-02-15T07:58:32;101067.59;;;7.45;100.00
64354;BME280;50681;53.334;-6.536;2023-02-15T08:01:26;101100.50;;;7.58;100.00
64354;BME280;50681;53.334;-6.536;2023-02-15T08:03:53;101102.06;;;7.54;100.00
64354;BME280;50681;53.334;-6.536;2023-02-15T08:06:21;101109.63;;;7.57;100.00
64354;BME280;50681;53.334;-6.536;2023-02-15T08:08:46;101105.81;;;7.53;100.00
64354;BME280;50681;53.334;-6.536;2023-02-15T08:14:16;101121.03;;;7.69;100.00
64354;BME280;50681;53.334;-6.536;2023-02-15T08:19:23;101127.78;;;7.44;100.00
64354;BME280;50681;53.334;-6.536;2023-02-15T08:21:56;101130.97;;;7.41;100.00
64354;BME280;50681;53.334;-6.536;2023-02-15T08:24:27;101144.97;;;7.43;100.00
64354;BME280;50681;53.334;-6.536;2023-02-15T08:26:53;101122.25;;;7.29;100.00
64354;BME280;50681;53.334;-6.536;2023-02-15T08:29:21;101116.88;;;7.29;100.00
64354;BME280;50681;53.334;-6.536;2023-02-15T08:31:48;101131.44;;;7.33;100.00
64354;BME280;50681;53.334;-6.536;2023-02-15T08:34:15;101145.25;;;7.19;100.00
64354;BME280;50681;53.334;-6.536;2023-02-15T08:36:42;101140.22;;;7.50;100.00
64354;BME280;50681;53.334;-6.536;2023-02-15T08:39:07;101132.03;;;7.40;100.00
64354;BME280;50681;53.334;-6.536;2023-02-15T08:41:34;101151.00;;;7.06;100.00
64354;BME280;50681;53.334;-6.536;2023-02-15T08:44:06;101149.81;;;6.97;100.00
64354;BME280;50681;53.334;-6.536;2023-02-15T08:46:33;101121.13;;;6.97;100.00
64354;BME280;50681;53.334;-6.536;2023-02-15T08:48:59;101147.47;;;7.00;100.00
64354;BME280;50681;53.334;-6.536;2023-02-15T08:51:27;101155.75;;;6.99;100.00
64354;BME280;50681;53.334;-6.536;2023-02-15T08:53:58;101163.75;;;6.94;100.00
64354;BME280;50681;53.334;-6.536;2023-02-15T08:56:26;101167.25;;;6.94;100.00
64354;BME280;50681;53.334;-6.536;2023-02-15T08:58:53;101166.66;;;6.70;100.00
64354;BME280;50681;53.334;-6.536;2023-02-15T09:01:21;101150.13;;;6.56;100.00
64354;BME280;50681;53.334;-6.536;2023-02-15T09:03:49;101137.63;;;6.67;100.00
64354;BME280;50681;53.334;-6.536;2023-02-15T09:06:16;101150.88;;;6.73;100.00
64354;BME280;50681;53.334;-6.536;2023-02-15T09:08:42;101166.81;;;7.02;100.00
64354;BME280;50681;53.334;-6.536;2023-02-15T09:11:15;101149.28;;;7.17;100.00
64354;BME280;50681;53.334;-6.536;2023-02-15T09:13:48;101166.91;;;7.35;100.00
64354;BME280;50681;53.334;-6.536;2023-02-15T09:16:13;101179.09;;;7.43;100.00
64354;BME280;50681;53.334;-6.536;2023-02-15T09:18:41;101179.78;;;7.55;100.00
64354;BME280;50681;53.334;-6.536;2023-02-15T09:21:12;101181.41;;;7.56;100.00
64354;BME280;50681;53.334;-6.536;2023-02-15T09:23:45;101173.16;;;7.41;100.00
64354;BME280;50681;53.334;-6.536;2023-02-15T09:26:13;101170.72;;;7.39;100.00
64354;BME280;50681;53.334;-6.536;2023-02-15T09:28:39;101177.72;;;7.40;100.00
64354;BME280;50681;53.334;-6.536;2023-02-15T09:31:12;101184.31;;;7.55;100.00
64354;BME280;50681;53.334;-6.536;2023-02-15T09:33:42;101183.00;;;7.57;100.00
64354;BME280;50681;53.334;-6.536;2023-02-15T09:36:16;101186.16;;;7.27;100.00
64354;BME280;50681;53.334;-6.536;2023-02-15T09:38:42;101165.13;;;7.18;100.00
64354;BME280;50681;53.334;-6.536;2023-02-15T10:01:22;101176.59;;;7.91;100.00
64354;BME280;50681;53.334;-6.536;2023-02-15T10:12:39;101193.06;;;7.94;100.00
64354;BME280;50681;53.334;-6.536;2023-02-15T10:15:34;101191.28;;;8.11;100.00
64354;BME280;50681;53.334;-6.536;2023-02-15T10:26:22;101176.28;;;8.52;100.00
64354;BME280;50681;53.334;-6.536;2023-02-15T10:28:51;101190.09;;;8.66;100.00
64354;BME280;50681;53.334;-6.536;2023-02-15T10:31:26;101197.34;;;8.66;100.00
64354;BME280;50681;53.334;-6.536;2023-02-15T10:34:31;101209.41;;;9.91;100.00
64354;BME280;50681;53.334;-6.536;2023-02-15T10:37:21;101189.97;;;10.20;100.00
64354;BME280;50681;53.334;-6.536;2023-02-15T10:45:37;101199.16;;;10.19;100.00
64354;BME280;50681;53.334;-6.536;2023-02-15T10:50:59;101207.78;;;10.31;100.00
64354;BME280;50681;53.334;-6.536;2023-02-15T10:56:36;101200.78;;;10.56;100.00
64354;BME280;50681;53.334;-6.536;2023-02-15T11:04:40;101209.38;;;10.63;100.00
64354;BME280;50681;53.334;-6.536;2023-02-15T11:07:14;101214.81;;;10.37;100.00
64354;BME280;50681;53.334;-6.536;2023-02-15T11:09:46;101204.56;;;10.50;100.00
64354;BME280;50681;53.334;-6.536;2023-02-15T11:12:18;101189.13;;;10.61;100.00
64354;BME280;50681;53.334;-6.536;2023-02-15T11:14:51;101182.41;;;10.58;100.00
64354;BME280;50681;53.334;-6.536;2023-02-15T11:17:27;101199.63;;;10.78;100.00
64354;BME280;50681;53.334;-6.536;2023-02-15T11:20:19;101207.44;;;10.90;100.00
64354;BME280;50681;53.334;-6.536;2023-02-15T11:22:49;101168.06;;;10.63;100.00
64354;BME280;50681;53.334;-6.536;2023-02-15T11:25:19;101207.53;;;10.48;100.00
64354;BME280;50681;53.334;-6.536;2023-02-15T11:27:49;101206.94;;;10.72;100.00
64354;BME280;50681;53.334;-6.536;2023-02-15T11:30:20;101186.47;;;10.45;100.00
64354;BME280;50681;53.334;-6.536;2023-02-15T11:32:48;101195.63;;;10.18;100.00
64354;BME280;50681;53.334;-6.536;2023-02-15T11:38:13;101195.09;;;10.42;100.00
64354;BME280;50681;53.334;-6.536;2023-02-15T11:40:50;101208.91;;;10.40;100.00
64354;BME280;50681;53.334;-6.536;2023-02-15T11:43:23;101201.03;;;10.44;100.00
64354;BME280;50681;53.334;-6.536;2023-02-15T11:45:54;101207.78;;;10.52;100.00
64354;BME280;50681;53.334;-6.536;2023-02-15T11:48:20;101189.16;;;10.50;100.00
64354;BME280;50681;53.334;-6.536;2023-02-15T11:50:45;101206.09;;;10.77;100.00
64354;BME280;50681;53.334;-6.536;2023-02-15T11:53:21;101215.56;;;10.79;100.00
64354;BME280;50681;53.334;-6.536;2023-02-15T11:55:53;101206.91;;;10.87;100.00
64354;BME280;50681;53.334;-6.536;2023-02-15T12:01:27;101230.91;;;10.99;100.00
64354;BME280;50681;53.334;-6.536;2023-02-15T12:03:59;101211.25;;;10.78;100.00
64354;BME280;50681;53.334;-6.536;2023-02-15T12:06:34;101216.66;;;10.78;100.00
64354;BME280;50681;53.334;-6.536;2023-02-15T12:09:09;101205.56;;;10.74;100.00
64354;BME280;50681;53.334;-6.536;2023-02-15T12:11:40;101209.66;;;10.67;100.00
64354;BME280;50681;53.334;-6.536;2023-02-15T12:14:08;101214.78;;;10.63;100.00
64354;BME280;50681;53.334;-6.536;2023-02-15T12:16:48;101212.03;;;10.79;100.00
64354;BME280;50681;53.334;-6.536;2023-02-15T12:19:31;101192.63;;;10.66;100.00
64354;BME280;50681;53.334;-6.536;2023-02-15T12:21:59;101186.19;;;10.52;100.00
64354;BME280;50681;53.334;-6.536;2023-02-15T12:24:37;101208.31;;;10.59;100.00
64354;BME280;50681;53.334;-6.536;2023-02-15T12:27:05;101199.72;;;10.47;100.00
64354;BME280;50681;53.334;-6.536;2023-02-15T12:29:50;101204.03;;;10.48;100.00
64354;BME280;50681;53.334;-6.536;2023-02-15T12:32:34;101200.25;;;10.43;100.00
64354;BME280;50681;53.334;-6.536;2023-02-15T12:35:13;101196.69;;;10.38;100.00
64354;BME280;50681;53.334;-6.536;2023-02-15T12:37:55;101180.81;;;10.21;100.00
64354;BME280;50681;53.334;-6.536;2023-02-15T12:40:28;101171.63;;;10.17;100.00
64354;BME280;50681;53.334;-6.536;2023-02-15T12:43:01;101185.13;;;10.17;100.00
64354;BME280;50681;53.334;-6.536;2023-02-15T12:45:37;101187.28;;;10.35;100.00
64354;BME280;50681;53.334;-6.536;2023-02-15T12:58:12;101200.28;;;11.25;100.00
64354;BME280;50681;53.334;-6.536;2023-02-15T13:00:41;101200.25;;;11.30;100.00
64354;BME280;50681;53.334;-6.536;2023-02-15T13:03:18;101183.41;;;11.43;100.00
64354;BME280;50681;53.334;-6.536;2023-02-15T13:05:47;101185.91;;;11.29;100.00
64354;BME280;50681;53.334;-6.536;2023-02-15T13:08:15;101191.16;;;11.10;100.00
64354;BME280;50681;53.334;-6.536;2023-02-15T13:13:19;101178.94;;;11.18;100.00
64354;BME280;50681;53.334;-6.536;2023-02-15T13:15:50;101174.28;;;11.34;100.00
64354;BME280;50681;53.334;-6.536;2023-02-15T13:18:28;101164.69;;;11.52;100.00
64354;BME280;50681;53.334;-6.536;2023-02-15T13:20:54;101192.00;;;11.56;100.00
64354;BME280;50681;53.334;-6.536;2023-02-15T13:23:28;101180.97;;;11.42;100.00
64354;BME280;50681;53.334;-6.536;2023-02-15T13:25:59;101176.78;;;11.65;100.00
64354;BME280;50681;53.334;-6.536;2023-02-15T13:28:39;101171.88;;;11.27;100.00
64354;BME280;50681;53.334;-6.536;2023-02-15T13:31:13;101163.91;;;11.52;100.00
64354;BME280;50681;53.334;-6.536;2023-02-15T13:33:43;101176.63;;;11.46;100.00
64354;BME280;50681;53.334;-6.536;2023-02-15T13:36:40;101176.66;;;11.41;100.00
64354;BME280;50681;53.334;-6.536;2023-02-15T13:39:15;101173.38;;;11.49;100.00
64354;BME280;50681;53.334;-6.536;2023-02-15T13:42:20;101170.78;;;11.73;100.00
64354;BME280;50681;53.334;-6.536;2023-02-15T13:47:27;101161.56;;;12.14;100.00
64354;BME280;50681;53.334;-6.536;2023-02-15T14:04:48;101160.72;;;13.16;100.00
64354;BME280;50681;53.334;-6.536;2023-02-15T14:11:08;101152.22;;;13.42;100.00
64354;BME280;50681;53.334;-6.536;2023-02-15T14:19:39;101153.03;;;13.23;100.00
64354;BME280;50681;53.334;-6.536;2023-02-15T14:24:52;101125.75;;;13.15;100.00
64354;BME280;50681;53.334;-6.536;2023-02-15T14:27:48;101147.13;;;12.97;100.00
64354;BME280;50681;53.334;-6.536;2023-02-15T14:30:29;101125.09;;;13.04;100.00
64354;BME280;50681;53.334;-6.536;2023-02-15T14:33:01;101149.50;;;13.04;100.00
64354;BME280;50681;53.334;-6.536;2023-02-15T14:35:30;101139.88;;;12.68;100.00
64354;BME280;50681;53.334;-6.536;2023-02-15T14:41:09;101140.91;;;12.72;100.00
64354;BME280;50681;53.334;-6.536;2023-02-15T14:49:27;101144.59;;;12.82;100.00
64354;BME280;50681;53.334;-6.536;2023-02-15T14:52:09;101143.88;;;12.76;100.00
64354;BME280;50681;53.334;-6.536;2023-02-15T15:01:57;101128.06;;;12.59;100.00
64354;BME280;50681;53.334;-6.536;2023-02-15T15:04:29;101146.00;;;12.55;100.00
64354;BME280;50681;53.334;-6.536;2023-02-15T15:07:41;101124.31;;;12.55;100.00
64354;BME280;50681;53.334;-6.536;2023-02-15T15:12:44;101114.63;;;12.48;100.00
64354;BME280;50681;53.334;-6.536;2023-02-15T15:15:13;101125.63;;;12.33;100.00
64354;BME280;50681;53.334;-6.536;2023-02-15T15:17:51;101122.25;;;12.46;100.00
64354;BME280;50681;53.334;-6.536;2023-02-15T15:26:24;101108.75;;;12.41;100.00
64354;BME280;50681;53.334;-6.536;2023-02-15T15:31:24;101106.22;;;12.26;100.00
64354;BME280;50681;53.334;-6.536;2023-02-15T15:34:27;101099.53;;;12.42;100.00
64354;BME280;50681;53.334;-6.536;2023-02-15T15:42:30;101091.53;;;12.32;100.00
64354;BME280;50681;53.334;-6.536;2023-02-15T15:45:03;101090.38;;;12.38;100.00